sensor_id;sensor_type;location;lat;lon;timestamp;P1;durP1;ratioP1;P2;durP2;ratioP2
17854;SDS011;9053;53.358;6.382;2023-01-16T00:02:14;4.70;;;4.10;;
17854;SDS011;9053;53.358;6.382;2023-01-16T00:04:44;6.47;;;4.13;;
17854;SDS011;9053;53.358;6.382;2023-01-16T00:07:13;5.97;;;4.03;;
17854;SDS011;9053;53.358;6.382;2023-01-16T00:09:46;5.83;;;4.30;;
17854;SDS011;9053;53.358;6.382;2023-01-16T00:12:16;4.87;;;3.60;;
17854;SDS011;9053;53.358;6.382;2023-01-16T00:14:46;4.50;;;3.40;;
17854;SDS011;9053;53.358;6.382;2023-01-16T00:17:15;4.17;;;3.67;;
17854;SDS011;9053;53.358;6.382;2023-01-16T00:19:45;3.63;;;3.30;;
17854;SDS011;9053;53.358;6.382;2023-01-16T00:22:15;5.47;;;3.63;;
17854;SDS011;9053;53.358;6.382;2023-01-16T00:24:48;4.53;;;3.80;;
17854;SDS011;9053;53.358;6.382;2023-01-16T00:27:18;4.67;;;3.90;;
17854;SDS011;9053;53.358;6.382;2023-01-16T00:29:47;5.30;;;3.70;;
17854;SDS011;9053;53.358;6.382;2023-01-16T00:32:17;4.53;;;3.53;;
17854;SDS011;9053;53.358;6.382;2023-01-16T00:34:47;5.13;;;3.70;;
17854;SDS011;9053;53.358;6.382;2023-01-16T00:37:17;4.43;;;3.50;;
17854;SDS011;9053;53.358;6.382;2023-01-16T00:39:49;4.90;;;3.80;;
17854;SDS011;9053;53.358;6.382;2023-01-16T00:42:20;5.03;;;3.60;;
17854;SDS011;9053;53.358;6.382;2023-01-16T00:44:50;5.43;;;3.70;;
17854;SDS011;9053;53.358;6.382;2023-01-16T00:47:20;4.33;;;3.50;;
17854;SDS011;9053;53.358;6.382;2023-01-16T00:49:49;4.37;;;3.50;;
17854;SDS011;9053;53.358;6.382;2023-01-16T00:52:20;4.23;;;3.43;;
17854;SDS011;9053;53.358;6.382;2023-01-16T00:54:52;3.83;;;3.30;;
17854;SDS011;9053;53.358;6.382;2023-01-16T00:57:22;3.77;;;3.47;;
17854;SDS011;9053;53.358;6.382;2023-01-16T00:59:52;3.73;;;2.90;;
17854;SDS011;9053;53.358;6.382;2023-01-16T01:02:22;4.43;;;3.00;;
17854;SDS011;9053;53.358;6.382;2023-01-16T01:04:51;5.27;;;3.43;;
17854;SDS011;9053;53.358;6.382;2023-01-16T01:07:21;5.13;;;3.20;;
17854;SDS011;9053;53.358;6.382;2023-01-16T01:09:54;3.53;;;3.20;;
17854;SDS011;9053;53.358;6.382;2023-01-16T01:12:24;4.63;;;3.37;;
17854;SDS011;9053;53.358;6.382;2023-01-16T01:14:53;3.63;;;3.20;;
17854;SDS011;9053;53.358;6.382;2023-01-16T01:17:23;4.27;;;3.60;;
17854;SDS011;9053;53.358;6.382;2023-01-16T01:19:53;7.10;;;4.17;;
17854;SDS011;9053;53.358;6.382;2023-01-16T01:22:23;7.03;;;4.00;;
17854;SDS011;9053;53.358;6.382;2023-01-16T01:24:55;5.33;;;3.90;;
17854;SDS011;9053;53.358;6.382;2023-01-16T01:27:25;8.03;;;4.10;;
17854;SDS011;9053;53.358;6.382;2023-01-16T01:29:55;7.07;;;3.60;;
17854;SDS011;9053;53.358;6.382;2023-01-16T01:32:25;5.40;;;4.20;;
17854;SDS011;9053;53.358;6.382;2023-01-16T01:34:55;5.73;;;3.83;;
17854;SDS011;9053;53.358;6.382;2023-01-16T01:37:25;4.37;;;3.77;;
17854;SDS011;9053;53.358;6.382;2023-01-16T01:39:57;6.30;;;3.70;;
17854;SDS011;9053;53.358;6.382;2023-01-16T01:42:27;6.77;;;4.17;;
17854;SDS011;9053;53.358;6.382;2023-01-16T01:45:19;7.07;;;4.37;;
17854;SDS011;9053;53.358;6.382;2023-01-16T01:47:52;4.30;;;3.80;;
17854;SDS011;9053;53.358;6.382;2023-01-16T01:50:33;6.10;;;3.47;;
17854;SDS011;9053;53.358;6.382;2023-01-16T01:53:10;6.87;;;3.63;;
17854;SDS011;9053;53.358;6.382;2023-01-16T01:55:47;5.57;;;3.10;;
17854;SDS011;9053;53.358;6.382;2023-01-16T01:58:19;6.20;;;3.77;;
17854;SDS011;9053;53.358;6.382;2023-01-16T02:00:52;7.20;;;3.10;;
17854;SDS011;9053;53.358;6.382;2023-01-16T02:03:26;4.97;;;3.17;;
17854;SDS011;9053;53.358;6.382;2023-01-16T02:06:02;5.77;;;3.30;;
17854;SDS011;9053;53.358;6.382;2023-01-16T02:08:38;4.67;;;3.00;;
17854;SDS011;9053;53.358;6.382;2023-01-16T02:11:14;4.63;;;3.30;;
17854;SDS011;9053;53.358;6.382;2023-01-16T02:13:55;4.70;;;2.90;;
17854;SDS011;9053;53.358;6.382;2023-01-16T02:16:27;5.67;;;3.10;;
17854;SDS011;9053;53.358;6.382;2023-01-16T02:19:12;3.87;;;3.10;;
17854;SDS011;9053;53.358;6.382;2023-01-16T02:24:55;3.57;;;2.53;;
17854;SDS011;9053;53.358;6.382;2023-01-16T02:27:51;5.33;;;2.90;;
17854;SDS011;9053;53.358;6.382;2023-01-16T02:33:41;3.13;;;2.57;;
17854;SDS011;9053;53.358;6.382;2023-01-16T02:36:24;3.43;;;2.70;;
17854;SDS011;9053;53.358;6.382;2023-01-16T02:39:05;5.03;;;3.07;;
17854;SDS011;9053;53.358;6.382;2023-01-16T02:41:46;4.97;;;2.57;;
17854;SDS011;9053;53.358;6.382;2023-01-16T02:44:22;2.93;;;2.30;;
17854;SDS011;9053;53.358;6.382;2023-01-16T02:47:10;3.00;;;2.60;;
17854;SDS011;9053;53.358;6.382;2023-01-16T02:49:46;3.13;;;2.37;;
17854;SDS011;9053;53.358;6.382;2023-01-16T02:52:23;3.03;;;2.57;;
17854;SDS011;9053;53.358;6.382;2023-01-16T02:54:59;5.43;;;3.50;;
17854;SDS011;9053;53.358;6.382;2023-01-16T02:57:33;4.43;;;3.00;;
17854;SDS011;9053;53.358;6.382;2023-01-16T03:00:07;4.83;;;2.77;;
17854;SDS011;9053;53.358;6.382;2023-01-16T03:02:45;4.80;;;2.80;;
17854;SDS011;9053;53.358;6.382;2023-01-16T03:05:15;4.17;;;2.93;;
17854;SDS011;9053;53.358;6.382;2023-01-16T03:11:10;3.13;;;2.37;;
17854;SDS011;9053;53.358;6.382;2023-01-16T03:13:59;4.60;;;2.57;;
17854;SDS011;9053;53.358;6.382;2023-01-16T03:16:50;3.00;;;2.70;;
17854;SDS011;9053;53.358;6.382;2023-01-16T03:19:34;4.43;;;2.63;;
17854;SDS011;9053;53.358;6.382;2023-01-16T03:22:13;4.40;;;2.77;;
17854;SDS011;9053;53.358;6.382;2023-01-16T03:27:48;4.87;;;2.33;;
17854;SDS011;9053;53.358;6.382;2023-01-16T03:30:27;4.43;;;2.53;;
17854;SDS011;9053;53.358;6.382;2023-01-16T03:33:01;4.23;;;2.80;;
17854;SDS011;9053;53.358;6.382;2023-01-16T03:35:39;4.10;;;2.57;;
17854;SDS011;9053;53.358;6.382;2023-01-16T03:38:15;5.07;;;2.83;;
17854;SDS011;9053;53.358;6.382;2023-01-16T03:40:49;7.03;;;2.60;;
17854;SDS011;9053;53.358;6.382;2023-01-16T03:43:21;3.80;;;2.70;;
17854;SDS011;9053;53.358;6.382;2023-01-16T03:45:57;5.07;;;3.20;;
17854;SDS011;9053;53.358;6.382;2023-01-16T03:48:32;4.47;;;2.73;;
17854;SDS011;9053;53.358;6.382;2023-01-16T03:51:10;4.70;;;3.00;;
17854;SDS011;9053;53.358;6.382;2023-01-16T03:53:47;3.80;;;2.93;;
17854;SDS011;9053;53.358;6.382;2023-01-16T03:56:27;4.10;;;2.70;;
17854;SDS011;9053;53.358;6.382;2023-01-16T03:59:03;3.67;;;2.50;;
17854;SDS011;9053;53.358;6.382;2023-01-16T04:01:36;5.17;;;3.20;;
17854;SDS011;9053;53.358;6.382;2023-01-16T04:04:10;4.13;;;3.03;;
17854;SDS011;9053;53.358;6.382;2023-01-16T04:06:48;4.20;;;2.93;;
17854;SDS011;9053;53.358;6.382;2023-01-16T04:09:24;5.43;;;3.47;;
17854;SDS011;9053;53.358;6.382;2023-01-16T04:11:58;6.13;;;3.00;;
17854;SDS011;9053;53.358;6.382;2023-01-16T04:14:30;4.17;;;3.07;;
17854;SDS011;9053;53.358;6.382;2023-01-16T04:17:03;5.17;;;3.00;;
17854;SDS011;9053;53.358;6.382;2023-01-16T04:19:33;5.80;;;3.10;;
17854;SDS011;9053;53.358;6.382;2023-01-16T04:22:07;5.07;;;3.10;;
17854;SDS011;9053;53.358;6.382;2023-01-16T04:24:37;3.03;;;2.70;;
17854;SDS011;9053;53.358;6.382;2023-01-16T04:27:07;5.67;;;2.97;;
17854;SDS011;9053;53.358;6.382;2023-01-16T04:29:37;4.00;;;2.87;;
17854;SDS011;9053;53.358;6.382;2023-01-16T04:32:07;6.87;;;3.77;;
17854;SDS011;9053;53.358;6.382;2023-01-16T04:34:37;4.57;;;2.90;;
17854;SDS011;9053;53.358;6.382;2023-01-16T04:37:09;5.40;;;3.90;;
17854;SDS011;9053;53.358;6.382;2023-01-16T04:39:41;5.27;;;3.03;;
17854;SDS011;9053;53.358;6.382;2023-01-16T04:42:14;5.47;;;3.77;;
17854;SDS011;9053;53.358;6.382;2023-01-16T04:44:44;4.60;;;3.57;;
17854;SDS011;9053;53.358;6.382;2023-01-16T04:47:14;4.83;;;3.47;;
17854;SDS011;9053;53.358;6.382;2023-01-16T04:49:43;4.73;;;3.37;;
17854;SDS011;9053;53.358;6.382;2023-01-16T04:52:16;4.90;;;3.40;;
17854;SDS011;9053;53.358;6.382;2023-01-16T04:54:46;5.03;;;3.70;;
17854;SDS011;9053;53.358;6.382;2023-01-16T04:57:15;6.97;;;3.83;;
17854;SDS011;9053;53.358;6.382;2023-01-16T04:59:45;4.73;;;3.90;;
17854;SDS011;9053;53.358;6.382;2023-01-16T05:02:15;5.07;;;3.67;;
17854;SDS011;9053;53.358;6.382;2023-01-16T05:04:45;5.73;;;3.67;;
17854;SDS011;9053;53.358;6.382;2023-01-16T05:07:17;5.53;;;4.37;;
17854;SDS011;9053;53.358;6.382;2023-01-16T05:09:47;6.07;;;3.90;;
17854;SDS011;9053;53.358;6.382;2023-01-16T05:12:17;7.63;;;3.77;;
17854;SDS011;9053;53.358;6.382;2023-01-16T05:14:47;7.57;;;3.97;;
17854;SDS011;9053;53.358;6.382;2023-01-16T05:17:17;4.97;;;3.77;;
17854;SDS011;9053;53.358;6.382;2023-01-16T05:19:50;5.03;;;3.80;;
17854;SDS011;9053;53.358;6.382;2023-01-16T05:22:23;6.37;;;4.13;;
17854;SDS011;9053;53.358;6.382;2023-01-16T05:24:54;5.83;;;4.20;;
17854;SDS011;9053;53.358;6.382;2023-01-16T05:27:23;7.27;;;5.03;;
17854;SDS011;9053;53.358;6.382;2023-01-16T05:29:53;5.57;;;4.30;;
17854;SDS011;9053;53.358;6.382;2023-01-16T05:32:23;4.80;;;4.00;;
17854;SDS011;9053;53.358;6.382;2023-01-16T05:34:53;9.80;;;4.20;;
17854;SDS011;9053;53.358;6.382;2023-01-16T05:37:25;5.20;;;4.40;;
17854;SDS011;9053;53.358;6.382;2023-01-16T05:39:55;5.63;;;4.40;;
17854;SDS011;9053;53.358;6.382;2023-01-16T05:42:26;4.93;;;4.00;;
17854;SDS011;9053;53.358;6.382;2023-01-16T05:44:56;6.07;;;4.70;;
17854;SDS011;9053;53.358;6.382;2023-01-16T05:47:26;6.87;;;4.80;;
17854;SDS011;9053;53.358;6.382;2023-01-16T05:49:56;6.87;;;4.70;;
17854;SDS011;9053;53.358;6.382;2023-01-16T05:52:29;7.83;;;4.73;;
17854;SDS011;9053;53.358;6.382;2023-01-16T05:54:59;6.93;;;4.63;;
17854;SDS011;9053;53.358;6.382;2023-01-16T05:57:29;6.87;;;4.63;;
17854;SDS011;9053;53.358;6.382;2023-01-16T05:59:59;8.47;;;4.97;;
17854;SDS011;9053;53.358;6.382;2023-01-16T06:02:29;8.70;;;5.10;;
17854;SDS011;9053;53.358;6.382;2023-01-16T06:04:59;7.23;;;4.60;;
17854;SDS011;9053;53.358;6.382;2023-01-16T06:07:31;5.77;;;4.43;;
17854;SDS011;9053;53.358;6.382;2023-01-16T06:10:05;8.73;;;4.53;;
17854;SDS011;9053;53.358;6.382;2023-01-16T06:12:35;7.73;;;5.20;;
17854;SDS011;9053;53.358;6.382;2023-01-16T06:15:07;8.57;;;4.53;;
17854;SDS011;9053;53.358;6.382;2023-01-16T06:17:37;5.00;;;4.27;;
17854;SDS011;9053;53.358;6.382;2023-01-16T06:20:08;8.07;;;4.70;;
17854;SDS011;9053;53.358;6.382;2023-01-16T06:22:44;6.30;;;4.70;;
17854;SDS011;9053;53.358;6.382;2023-01-16T06:25:14;6.33;;;4.60;;
17854;SDS011;9053;53.358;6.382;2023-01-16T06:27:46;7.00;;;4.70;;
17854;SDS011;9053;53.358;6.382;2023-01-16T06:30:17;6.97;;;4.80;;
17854;SDS011;9053;53.358;6.382;2023-01-16T06:32:47;7.40;;;4.80;;
17854;SDS011;9053;53.358;6.382;2023-01-16T06:35:19;8.63;;;5.13;;
17854;SDS011;9053;53.358;6.382;2023-01-16T06:37:51;6.77;;;5.27;;
17854;SDS011;9053;53.358;6.382;2023-01-16T06:40:21;8.70;;;5.40;;
17854;SDS011;9053;53.358;6.382;2023-01-16T06:42:51;8.10;;;5.43;;
17854;SDS011;9053;53.358;6.382;2023-01-16T06:45:21;7.17;;;5.57;;
17854;SDS011;9053;53.358;6.382;2023-01-16T06:47:51;8.80;;;5.60;;
17854;SDS011;9053;53.358;6.382;2023-01-16T06:50:21;8.93;;;5.63;;
17854;SDS011;9053;53.358;6.382;2023-01-16T06:52:54;9.23;;;5.50;;
17854;SDS011;9053;53.358;6.382;2023-01-16T06:55:24;8.50;;;6.10;;
17854;SDS011;9053;53.358;6.382;2023-01-16T06:57:53;9.00;;;5.87;;
17854;SDS011;9053;53.358;6.382;2023-01-16T07:00:23;8.10;;;5.77;;
17854;SDS011;9053;53.358;6.382;2023-01-16T07:02:54;7.73;;;5.87;;
17854;SDS011;9053;53.358;6.382;2023-01-16T07:05:26;9.03;;;6.40;;
17854;SDS011;9053;53.358;6.382;2023-01-16T07:07:59;10.03;;;6.43;;
17854;SDS011;9053;53.358;6.382;2023-01-16T07:10:29;9.20;;;6.40;;
17854;SDS011;9053;53.358;6.382;2023-01-16T07:12:59;11.77;;;7.27;;
17854;SDS011;9053;53.358;6.382;2023-01-16T07:15:29;10.10;;;6.80;;
17854;SDS011;9053;53.358;6.382;2023-01-16T07:18:11;9.50;;;6.40;;
17854;SDS011;9053;53.358;6.382;2023-01-16T07:20:55;8.00;;;6.40;;
17854;SDS011;9053;53.358;6.382;2023-01-16T07:23:46;10.00;;;6.90;;
17854;SDS011;9053;53.358;6.382;2023-01-16T07:26:19;9.07;;;6.97;;
17854;SDS011;9053;53.358;6.382;2023-01-16T07:28:51;9.73;;;6.40;;
17854;SDS011;9053;53.358;6.382;2023-01-16T07:31:22;8.33;;;6.53;;
17854;SDS011;9053;53.358;6.382;2023-01-16T07:33:53;11.13;;;7.13;;
17854;SDS011;9053;53.358;6.382;2023-01-16T07:36:22;9.70;;;7.00;;
17854;SDS011;9053;53.358;6.382;2023-01-16T07:38:55;9.13;;;5.90;;
17854;SDS011;9053;53.358;6.382;2023-01-16T07:41:24;10.30;;;6.50;;
17854;SDS011;9053;53.358;6.382;2023-01-16T07:43:54;9.03;;;6.37;;
17854;SDS011;9053;53.358;6.382;2023-01-16T07:46:24;8.83;;;6.27;;
17854;SDS011;9053;53.358;6.382;2023-01-16T07:48:54;9.67;;;6.13;;
17854;SDS011;9053;53.358;6.382;2023-01-16T07:51:24;10.27;;;6.77;;
17854;SDS011;9053;53.358;6.382;2023-01-16T07:53:56;9.17;;;6.00;;
17854;SDS011;9053;53.358;6.382;2023-01-16T07:56:26;11.63;;;8.20;;
17854;SDS011;9053;53.358;6.382;2023-01-16T07:58:56;11.93;;;6.37;;
17854;SDS011;9053;53.358;6.382;2023-01-16T08:01:26;8.47;;;6.00;;
17854;SDS011;9053;53.358;6.382;2023-01-16T08:03:56;8.50;;;6.07;;
17854;SDS011;9053;53.358;6.382;2023-01-16T08:06:26;11.43;;;6.27;;
17854;SDS011;9053;53.358;6.382;2023-01-16T08:08:58;10.00;;;6.03;;
17854;SDS011;9053;53.358;6.382;2023-01-16T08:11:30;10.47;;;6.57;;
17854;SDS011;9053;53.358;6.382;2023-01-16T08:14:07;9.70;;;7.07;;
17854;SDS011;9053;53.358;6.382;2023-01-16T08:16:37;10.97;;;6.70;;
17854;SDS011;9053;53.358;6.382;2023-01-16T08:19:06;10.63;;;6.40;;
17854;SDS011;9053;53.358;6.382;2023-01-16T08:21:36;9.90;;;6.03;;
17854;SDS011;9053;53.358;6.382;2023-01-16T08:24:09;10.40;;;5.97;;
17854;SDS011;9053;53.358;6.382;2023-01-16T08:26:41;10.07;;;6.10;;
17854;SDS011;9053;53.358;6.382;2023-01-16T08:29:11;8.73;;;6.27;;
17854;SDS011;9053;53.358;6.382;2023-01-16T08:31:41;8.63;;;5.73;;
17854;SDS011;9053;53.358;6.382;2023-01-16T08:34:11;10.13;;;6.73;;
17854;SDS011;9053;53.358;6.382;2023-01-16T08:36:41;8.63;;;6.03;;
17854;SDS011;9053;53.358;6.382;2023-01-16T08:39:13;8.43;;;5.80;;
17854;SDS011;9053;53.358;6.382;2023-01-16T08:41:43;8.60;;;6.07;;
17854;SDS011;9053;53.358;6.382;2023-01-16T08:44:25;11.27;;;6.47;;
17854;SDS011;9053;53.358;6.382;2023-01-16T08:47:09;8.23;;;5.87;;
17854;SDS011;9053;53.358;6.382;2023-01-16T08:49:53;7.63;;;4.77;;
17854;SDS011;9053;53.358;6.382;2023-01-16T08:52:35;7.93;;;5.47;;
17854;SDS011;9053;53.358;6.382;2023-01-16T08:55:08;7.53;;;5.83;;
17854;SDS011;9053;53.358;6.382;2023-01-16T08:57:38;10.60;;;6.40;;
17854;SDS011;9053;53.358;6.382;2023-01-16T09:00:08;9.10;;;5.80;;
17854;SDS011;9053;53.358;6.382;2023-01-16T09:02:39;12.63;;;7.13;;
17854;SDS011;9053;53.358;6.382;2023-01-16T09:05:09;12.73;;;7.17;;
17854;SDS011;9053;53.358;6.382;2023-01-16T09:07:39;9.63;;;7.13;;
17854;SDS011;9053;53.358;6.382;2023-01-16T09:10:12;10.30;;;6.77;;
17854;SDS011;9053;53.358;6.382;2023-01-16T09:12:42;14.17;;;7.20;;
17854;SDS011;9053;53.358;6.382;2023-01-16T09:15:25;10.37;;;6.83;;
17854;SDS011;9053;53.358;6.382;2023-01-16T09:17:55;10.50;;;6.83;;
17854;SDS011;9053;53.358;6.382;2023-01-16T09:20:25;11.27;;;6.70;;
17854;SDS011;9053;53.358;6.382;2023-01-16T09:22:57;11.57;;;6.83;;
17854;SDS011;9053;53.358;6.382;2023-01-16T09:25:30;11.13;;;6.90;;
17854;SDS011;9053;53.358;6.382;2023-01-16T09:28:01;13.27;;;6.30;;
17854;SDS011;9053;53.358;6.382;2023-01-16T09:30:31;10.33;;;6.57;;
17854;SDS011;9053;53.358;6.382;2023-01-16T09:33:01;10.17;;;5.83;;
17854;SDS011;9053;53.358;6.382;2023-01-16T09:35:31;11.10;;;6.23;;
17854;SDS011;9053;53.358;6.382;2023-01-16T09:38:01;9.23;;;6.37;;
17854;SDS011;9053;53.358;6.382;2023-01-16T09:40:33;10.03;;;6.30;;
17854;SDS011;9053;53.358;6.382;2023-01-16T09:43:08;13.73;;;6.07;;
17854;SDS011;9053;53.358;6.382;2023-01-16T09:45:58;11.60;;;5.93;;
17854;SDS011;9053;53.358;6.382;2023-01-16T09:48:32;9.30;;;5.70;;
17854;SDS011;9053;53.358;6.382;2023-01-16T09:51:06;8.13;;;6.03;;
17854;SDS011;9053;53.358;6.382;2023-01-16T09:53:41;8.83;;;5.03;;
17854;SDS011;9053;53.358;6.382;2023-01-16T09:56:32;9.77;;;5.37;;
17854;SDS011;9053;53.358;6.382;2023-01-16T09:59:27;9.93;;;5.97;;
17854;SDS011;9053;53.358;6.382;2023-01-16T10:02:03;11.90;;;6.40;;
17854;SDS011;9053;53.358;6.382;2023-01-16T10:04:38;14.73;;;12.73;;
17854;SDS011;9053;53.358;6.382;2023-01-16T10:07:28;9.60;;;5.37;;
17854;SDS011;9053;53.358;6.382;2023-01-16T10:10:26;7.63;;;5.37;;
17854;SDS011;9053;53.358;6.382;2023-01-16T10:13:20;7.77;;;5.20;;
17854;SDS011;9053;53.358;6.382;2023-01-16T10:16:02;7.33;;;5.00;;
17854;SDS011;9053;53.358;6.382;2023-01-16T10:18:41;13.00;;;5.57;;
17854;SDS011;9053;53.358;6.382;2023-01-16T10:21:27;7.67;;;4.80;;
17854;SDS011;9053;53.358;6.382;2023-01-16T10:24:10;7.30;;;4.70;;
17854;SDS011;9053;53.358;6.382;2023-01-16T10:26:49;5.97;;;4.50;;
17854;SDS011;9053;53.358;6.382;2023-01-16T10:29:29;5.23;;;4.23;;
17854;SDS011;9053;53.358;6.382;2023-01-16T10:32:04;7.33;;;4.43;;
17854;SDS011;9053;53.358;6.382;2023-01-16T10:34:42;5.90;;;4.30;;
17854;SDS011;9053;53.358;6.382;2023-01-16T10:37:20;8.50;;;4.90;;
17854;SDS011;9053;53.358;6.382;2023-01-16T10:39:52;5.97;;;4.20;;
17854;SDS011;9053;53.358;6.382;2023-01-16T10:42:23;7.47;;;4.37;;
17854;SDS011;9053;53.358;6.382;2023-01-16T10:45:12;7.80;;;4.20;;
17854;SDS011;9053;53.358;6.382;2023-01-16T10:47:56;6.00;;;3.70;;
17854;SDS011;9053;53.358;6.382;2023-01-16T10:50:39;9.07;;;3.93;;
17854;SDS011;9053;53.358;6.382;2023-01-16T10:53:10;6.67;;;4.10;;
17854;SDS011;9053;53.358;6.382;2023-01-16T10:55:42;5.67;;;3.60;;
17854;SDS011;9053;53.358;6.382;2023-01-16T10:58:19;8.37;;;4.63;;
17854;SDS011;9053;53.358;6.382;2023-01-16T11:00:57;7.57;;;4.17;;
17854;SDS011;9053;53.358;6.382;2023-01-16T11:03:33;8.93;;;4.27;;
17854;SDS011;9053;53.358;6.382;2023-01-16T11:06:11;7.87;;;4.43;;
17854;SDS011;9053;53.358;6.382;2023-01-16T11:08:43;7.60;;;4.40;;
17854;SDS011;9053;53.358;6.382;2023-01-16T11:11:16;7.33;;;4.10;;
17854;SDS011;9053;53.358;6.382;2023-01-16T11:13:58;6.03;;;4.00;;
17854;SDS011;9053;53.358;6.382;2023-01-16T11:16:43;5.73;;;3.77;;
17854;SDS011;9053;53.358;6.382;2023-01-16T11:19:26;5.23;;;3.53;;
17854;SDS011;9053;53.358;6.382;2023-01-16T11:21:58;4.17;;;3.23;;
17854;SDS011;9053;53.358;6.382;2023-01-16T11:24:33;6.33;;;3.33;;
17854;SDS011;9053;53.358;6.382;2023-01-16T11:27:05;6.20;;;3.30;;
17854;SDS011;9053;53.358;6.382;2023-01-16T11:29:38;4.27;;;3.00;;
17854;SDS011;9053;53.358;6.382;2023-01-16T11:32:13;4.87;;;2.83;;
17854;SDS011;9053;53.358;6.382;2023-01-16T11:34:45;2.70;;;2.10;;
17854;SDS011;9053;53.358;6.382;2023-01-16T11:37:16;3.17;;;2.40;;
17854;SDS011;9053;53.358;6.382;2023-01-16T11:39:46;2.70;;;2.00;;
17854;SDS011;9053;53.358;6.382;2023-01-16T11:42:18;2.90;;;1.77;;
17854;SDS011;9053;53.358;6.382;2023-01-16T11:45:04;1.80;;;1.70;;
17854;SDS011;9053;53.358;6.382;2023-01-16T11:47:58;1.90;;;1.70;;
17854;SDS011;9053;53.358;6.382;2023-01-16T11:50:50;2.70;;;1.40;;
17854;SDS011;9053;53.358;6.382;2023-01-16T11:53:21;2.87;;;1.83;;
17854;SDS011;9053;53.358;6.382;2023-01-16T11:55:55;1.93;;;1.30;;
17854;SDS011;9053;53.358;6.382;2023-01-16T11:58:41;1.87;;;1.27;;
17854;SDS011;9053;53.358;6.382;2023-01-16T12:01:18;3.00;;;1.60;;
17854;SDS011;9053;53.358;6.382;2023-01-16T12:04:19;1.77;;;1.60;;
17854;SDS011;9053;53.358;6.382;2023-01-16T12:06:53;2.17;;;1.57;;
17854;SDS011;9053;53.358;6.382;2023-01-16T12:09:43;2.13;;;1.70;;
17854;SDS011;9053;53.358;6.382;2023-01-16T12:12:25;1.80;;;1.70;;
17854;SDS011;9053;53.358;6.382;2023-01-16T12:15:28;2.20;;;1.83;;
17854;SDS011;9053;53.358;6.382;2023-01-16T12:18:09;2.00;;;1.57;;
17854;SDS011;9053;53.358;6.382;2023-01-16T12:20:52;2.97;;;1.70;;
17854;SDS011;9053;53.358;6.382;2023-01-16T12:23:32;2.80;;;2.00;;
17854;SDS011;9053;53.358;6.382;2023-01-16T12:26:24;2.43;;;1.60;;
17854;SDS011;9053;53.358;6.382;2023-01-16T12:29:01;2.00;;;1.80;;
17854;SDS011;9053;53.358;6.382;2023-01-16T12:31:45;2.77;;;1.80;;
17854;SDS011;9053;53.358;6.382;2023-01-16T12:34:31;2.40;;;1.57;;
17854;SDS011;9053;53.358;6.382;2023-01-16T12:37:23;2.20;;;1.80;;
17854;SDS011;9053;53.358;6.382;2023-01-16T12:40:14;3.00;;;2.03;;
17854;SDS011;9053;53.358;6.382;2023-01-16T12:42:59;3.30;;;1.70;;
17854;SDS011;9053;53.358;6.382;2023-01-16T12:45:48;2.27;;;1.80;;
17854;SDS011;9053;53.358;6.382;2023-01-16T12:51:16;1.97;;;1.43;;
17854;SDS011;9053;53.358;6.382;2023-01-16T12:54:07;3.40;;;1.60;;
17854;SDS011;9053;53.358;6.382;2023-01-16T12:57:03;2.90;;;1.57;;
17854;SDS011;9053;53.358;6.382;2023-01-16T12:59:41;1.50;;;1.40;;
17854;SDS011;9053;53.358;6.382;2023-01-16T13:02:18;2.07;;;1.80;;
17854;SDS011;9053;53.358;6.382;2023-01-16T13:04:53;1.67;;;1.57;;
17854;SDS011;9053;53.358;6.382;2023-01-16T13:07:28;2.40;;;1.50;;
17854;SDS011;9053;53.358;6.382;2023-01-16T13:10:10;3.00;;;1.60;;
17854;SDS011;9053;53.358;6.382;2023-01-16T13:12:57;2.93;;;1.40;;
17854;SDS011;9053;53.358;6.382;2023-01-16T13:15:42;2.03;;;1.83;;
17854;SDS011;9053;53.358;6.382;2023-01-16T13:18:18;2.23;;;1.70;;
17854;SDS011;9053;53.358;6.382;2023-01-16T13:20:51;1.53;;;1.43;;
17854;SDS011;9053;53.358;6.382;2023-01-16T13:23:23;2.47;;;1.87;;
17854;SDS011;9053;53.358;6.382;2023-01-16T13:25:59;2.30;;;1.90;;
17854;SDS011;9053;53.358;6.382;2023-01-16T13:28:32;3.33;;;2.10;;
17854;SDS011;9053;53.358;6.382;2023-01-16T13:31:12;2.70;;;1.90;;
17854;SDS011;9053;53.358;6.382;2023-01-16T13:33:48;1.80;;;1.70;;
17854;SDS011;9053;53.358;6.382;2023-01-16T13:42:51;2.80;;;1.83;;
17854;SDS011;9053;53.358;6.382;2023-01-16T13:45:29;3.43;;;2.63;;
17854;SDS011;9053;53.358;6.382;2023-01-16T13:48:21;2.10;;;1.90;;
17854;SDS011;9053;53.358;6.382;2023-01-16T13:50:57;2.10;;;1.70;;
17854;SDS011;9053;53.358;6.382;2023-01-16T13:53:29;2.40;;;2.00;;
17854;SDS011;9053;53.358;6.382;2023-01-16T13:56:02;2.40;;;2.03;;
17854;SDS011;9053;53.358;6.382;2023-01-16T13:58:40;2.70;;;2.10;;
17854;SDS011;9053;53.358;6.382;2023-01-16T14:04:27;3.90;;;2.30;;
17854;SDS011;9053;53.358;6.382;2023-01-16T14:06:59;3.23;;;2.40;;
17854;SDS011;9053;53.358;6.382;2023-01-16T14:12:59;2.50;;;2.20;;
17854;SDS011;9053;53.358;6.382;2023-01-16T14:18:35;2.70;;;2.20;;
17854;SDS011;9053;53.358;6.382;2023-01-16T14:21:14;2.80;;;2.30;;
17854;SDS011;9053;53.358;6.382;2023-01-16T14:23:47;2.57;;;2.37;;
17854;SDS011;9053;53.358;6.382;2023-01-16T14:26:33;2.53;;;2.33;;
17854;SDS011;9053;53.358;6.382;2023-01-16T14:29:13;2.60;;;2.40;;
17854;SDS011;9053;53.358;6.382;2023-01-16T14:31:53;2.07;;;1.97;;
17854;SDS011;9053;53.358;6.382;2023-01-16T14:34:25;2.70;;;2.23;;
17854;SDS011;9053;53.358;6.382;2023-01-16T14:36:59;4.17;;;1.97;;
17854;SDS011;9053;53.358;6.382;2023-01-16T14:39:32;2.87;;;2.57;;
17854;SDS011;9053;53.358;6.382;2023-01-16T14:42:05;2.47;;;2.23;;
17854;SDS011;9053;53.358;6.382;2023-01-16T14:48:11;2.50;;;2.30;;
17854;SDS011;9053;53.358;6.382;2023-01-16T14:51:12;2.47;;;2.27;;
17854;SDS011;9053;53.358;6.382;2023-01-16T14:53:59;2.63;;;2.37;;
17854;SDS011;9053;53.358;6.382;2023-01-16T14:56:44;2.63;;;2.43;;
17854;SDS011;9053;53.358;6.382;2023-01-16T14:59:18;2.13;;;2.00;;
17854;SDS011;9053;53.358;6.382;2023-01-16T15:01:59;2.43;;;2.00;;
17854;SDS011;9053;53.358;6.382;2023-01-16T15:04:47;2.40;;;2.20;;
17854;SDS011;9053;53.358;6.382;2023-01-16T15:07:25;2.40;;;2.20;;
17854;SDS011;9053;53.358;6.382;2023-01-16T15:10:10;3.60;;;2.33;;
17854;SDS011;9053;53.358;6.382;2023-01-16T15:12:43;2.50;;;2.30;;
17854;SDS011;9053;53.358;6.382;2023-01-16T15:15:21;2.57;;;2.10;;
17854;SDS011;9053;53.358;6.382;2023-01-16T15:17:53;5.20;;;3.00;;
17854;SDS011;9053;53.358;6.382;2023-01-16T15:20:41;2.77;;;2.23;;
17854;SDS011;9053;53.358;6.382;2023-01-16T15:23:25;2.63;;;2.33;;
17854;SDS011;9053;53.358;6.382;2023-01-16T15:26:04;2.30;;;2.10;;
17854;SDS011;9053;53.358;6.382;2023-01-16T15:28:45;2.47;;;2.20;;
17854;SDS011;9053;53.358;6.382;2023-01-16T15:31:26;2.70;;;2.40;;
17854;SDS011;9053;53.358;6.382;2023-01-16T15:33:59;2.73;;;2.47;;
17854;SDS011;9053;53.358;6.382;2023-01-16T15:36:34;2.10;;;2.00;;
17854;SDS011;9053;53.358;6.382;2023-01-16T15:39:12;3.50;;;2.43;;
17854;SDS011;9053;53.358;6.382;2023-01-16T15:41:50;2.37;;;2.17;;
17854;SDS011;9053;53.358;6.382;2023-01-16T15:44:36;2.27;;;2.07;;
17854;SDS011;9053;53.358;6.382;2023-01-16T15:50:17;3.00;;;2.20;;
17854;SDS011;9053;53.358;6.382;2023-01-16T15:52:55;2.93;;;2.13;;
17854;SDS011;9053;53.358;6.382;2023-01-16T15:55:28;3.73;;;2.63;;
17854;SDS011;9053;53.358;6.382;2023-01-16T15:58:01;2.80;;;2.30;;
17854;SDS011;9053;53.358;6.382;2023-01-16T16:00:34;2.30;;;2.10;;
17854;SDS011;9053;53.358;6.382;2023-01-16T16:03:10;2.50;;;2.30;;
17854;SDS011;9053;53.358;6.382;2023-01-16T16:05:43;2.50;;;2.30;;
17854;SDS011;9053;53.358;6.382;2023-01-16T16:08:18;2.40;;;2.30;;
17854;SDS011;9053;53.358;6.382;2023-01-16T16:10:50;2.40;;;2.20;;
17854;SDS011;9053;53.358;6.382;2023-01-16T16:13:34;3.30;;;2.40;;
17854;SDS011;9053;53.358;6.382;2023-01-16T16:16:14;3.57;;;2.43;;
17854;SDS011;9053;53.358;6.382;2023-01-16T16:18:58;2.70;;;2.50;;
17854;SDS011;9053;53.358;6.382;2023-01-16T16:21:29;3.03;;;2.43;;
17854;SDS011;9053;53.358;6.382;2023-01-16T16:24:05;3.07;;;2.43;;
17854;SDS011;9053;53.358;6.382;2023-01-16T16:26:42;2.90;;;2.70;;
17854;SDS011;9053;53.358;6.382;2023-01-16T16:29:16;3.03;;;2.80;;